Time;durP1;ratioP1;P1;durP2;ratioP2;P2;SDS_P1;SDS_P2;PMS_P1;PMS_P2;Temp;Humidity;BMP_temperature;BMP_pressure;BME280_temperature;BME280_humidity;BME280_pressure;Samples;Min_cycle;Max_cycle;Signal;HPM_P1;HPM_P2
2022/05/17 00:01:59;;;;;;;6.68;1.20;;;18.00;99.90;;;;;;5017600;28;20033;-68
2022/05/17 00:04:27;;;;;;;9.55;1.40;;;18.00;99.90;;;;;;5019335;28;20130;-68
2022/05/17 00:06:54;;;;;;;8.15;1.10;;;17.90;99.90;;;;;;5015088;28;20044;-67
2022/05/17 00:09:21;;;;;;;5.53;0.88;;;18.00;99.90;;;;;;5020884;28;20104;-68
2022/05/17 00:11:49;;;;;;;4.05;0.55;;;17.90;99.90;;;;;;5020533;28;20022;-67
2022/05/17 00:14:17;;;;;;;1.65;0.20;;;18.00;99.90;;;;;;5024639;28;20049;-67
2022/05/17 00:16:46;;;;;;;3.55;0.60;;;17.80;99.90;;;;;;5030148;28;20031;-67
2022/05/17 00:19:16;;;;;;;4.32;0.70;;;18.00;99.90;;;;;;5023950;28;20018;-67
2022/05/17 00:21:44;;;;;;;2.85;0.70;;;18.10;99.90;;;;;;5015710;28;20103;-68
2022/05/17 00:24:15;;;;;;;1.80;0.60;;;18.20;99.90;;;;;;5012689;28;20072;-68
2022/05/17 00:26:43;;;;;;;2.33;0.20;;;18.20;99.90;;;;;;5014342;28;20153;-67
2022/05/17 00:29:10;;;;;;;2.90;0.28;;;18.00;99.90;;;;;;5028005;28;20030;-68
2022/05/17 00:31:38;;;;;;;3.40;0.30;;;17.90;99.90;;;;;;5021435;28;20081;-67
2022/05/17 00:34:06;;;;;;;1.70;0.45;;;17.80;99.90;;;;;;5020126;28;20030;-68
2022/05/17 00:36:35;;;;;;;5.55;0.57;;;17.90;99.90;;;;;;5018722;28;20294;-68
2022/05/17 00:39:02;;;;;;;6.53;0.68;;;18.10;99.90;;;;;;5013314;28;20045;-68
2022/05/17 00:41:30;;;;;;;4.10;0.28;;;18.10;99.90;;;;;;5011854;28;20025;-68
2022/05/17 00:46:48;;;;;;;1.42;0.30;;;18.40;99.90;;;;;;5012223;28;20414;-68
2022/05/17 00:49:24;;;;;;;3.75;0.38;;;18.20;99.90;;;;;;5012433;28;20032;-68
2022/05/17 00:51:54;;;;;;;0.95;0.30;;;18.20;99.90;;;;;;5012552;28;20493;-68
2022/05/17 00:54:21;;;;;;;2.20;0.20;;;18.10;99.90;;;;;;5023040;28;20033;-68
2022/05/17 00:57:05;;;;;;;2.83;0.50;;;18.20;99.90;;;;;;5017114;28;20486;-68
2022/05/17 00:59:33;;;;;;;4.05;0.45;;;18.30;99.90;;;;;;5014177;28;20117;-68
2022/05/17 01:02:00;;;;;;;2.97;0.43;;;18.30;99.90;;;;;;5024769;28;20441;-68
2022/05/17 01:04:28;;;;;;;2.38;0.30;;;18.50;99.90;;;;;;5011865;28;20030;-68
2022/05/17 01:07:12;;;;;;;5.78;0.32;;;18.60;99.90;;;;;;5018872;28;20064;-68
2022/05/17 01:09:39;;;;;;;2.42;0.22;;;18.60;99.90;;;;;;5023173;28;20414;-68
2022/05/17 01:12:07;;;;;;;4.25;0.60;;;18.50;99.90;;;;;;5020021;28;20036;-68
2022/05/17 01:17:21;;;;;;;6.47;0.77;;;18.60;99.90;;;;;;5025848;28;20036;-68
2022/05/17 01:19:48;;;;;;;4.47;0.40;;;18.70;99.90;;;;;;5018623;28;20769;-68
2022/05/17 01:22:17;;;;;;;0.88;0.30;;;18.80;99.90;;;;;;5018606;28;20029;-68
2022/05/17 01:24:44;;;;;;;2.22;0.25;;;18.80;99.90;;;;;;5022553;28;20037;-68
2022/05/17 01:27:40;;;;;;;3.05;0.30;;;18.90;99.90;;;;;;5027517;28;20029;-68
2022/05/17 01:30:14;;;;;;;4.13;0.45;;;18.80;99.90;;;;;;5027099;28;20060;-68
2022/05/17 01:32:41;;;;;;;3.85;0.98;;;18.90;99.90;;;;;;5022057;28;20026;-68
2022/05/17 01:35:09;;;;;;;2.85;0.35;;;19.10;99.90;;;;;;5033014;28;20022;-68
2022/05/17 01:37:36;;;;;;;1.33;0.20;;;19.00;99.90;;;;;;5025916;28;20026;-68
2022/05/17 01:40:04;;;;;;;2.08;0.20;;;18.80;99.90;;;;;;5029542;28;20091;-68
2022/05/17 01:42:34;;;;;;;1.10;0.28;;;18.80;99.70;;;;;;5018982;28;20026;-68
2022/05/17 01:45:01;;;;;;;2.85;0.30;;;19.10;99.90;;;;;;5016326;28;20055;-68
2022/05/17 01:47:30;;;;;;;2.13;0.20;;;19.40;99.90;;;;;;5025780;28;20042;-68
2022/05/17 01:49:57;;;;;;;2.05;0.20;;;19.40;99.90;;;;;;5022274;28;20382;-68
2022/05/17 01:52:25;;;;;;;3.13;0.40;;;19.40;99.70;;;;;;5023978;28;20091;-68
2022/05/17 01:54:52;;;;;;;5.57;0.28;;;19.60;99.80;;;;;;5028492;28;20594;-68
2022/05/17 01:57:20;;;;;;;0.98;0.20;;;19.60;99.30;;;;;;5030902;28;20052;-68
2022/05/17 01:59:47;;;;;;;2.33;0.20;;;19.90;99.60;;;;;;5029851;28;20021;-67
2022/05/17 02:02:14;;;;;;;2.60;0.30;;;19.90;99.30;;;;;;5028062;28;20026;-67
2022/05/17 02:04:42;;;;;;;1.13;0.20;;;20.00;99.60;;;;;;5022652;28;20045;-68
2022/05/17 02:07:09;;;;;;;1.13;0.20;;;20.00;98.80;;;;;;5017086;28;20026;-68
2022/05/17 02:09:37;;;;;;;2.47;0.55;;;20.40;98.00;;;;;;5018311;28;20018;-67
2022/05/17 02:12:04;;;;;;;1.13;0.10;;;20.30;97.80;;;;;;5018952;28;20069;-68
2022/05/17 02:14:32;;;;;;;2.42;0.30;;;20.20;98.20;;;;;;5022179;28;20044;-67
2022/05/17 02:17:02;;;;;;;3.72;0.40;;;20.70;98.10;;;;;;5029050;28;20029;-67
2022/05/17 02:19:33;;;;;;;4.78;0.47;;;20.60;97.90;;;;;;5027256;28;20029;-66
2022/05/17 02:22:00;;;;;;;3.08;0.30;;;20.50;97.60;;;;;;5027102;28;20025;-67
2022/05/17 02:24:27;;;;;;;3.50;0.22;;;20.40;97.60;;;;;;5030028;28;20390;-68
2022/05/17 02:26:56;;;;;;;2.88;0.50;;;20.30;97.60;;;;;;5019470;28;20032;-68
2022/05/17 02:29:24;;;;;;;1.38;0.20;;;20.60;98.40;;;;;;5023190;28;20099;-69
2022/05/17 02:31:52;;;;;;;2.17;0.20;;;20.60;98.60;;;;;;5026358;28;20072;-68
2022/05/17 02:34:20;;;;;;;2.17;0.35;;;20.90;98.00;;;;;;5015909;28;20093;-68
2022/05/17 02:36:47;;;;;;;1.50;0.15;;;20.80;97.70;;;;;;5022060;28;20094;-68
2022/05/17 02:39:15;;;;;;;1.63;0.22;;;20.50;98.10;;;;;;5021623;28;20075;-68
2022/05/17 02:41:42;;;;;;;2.22;0.65;;;20.70;98.10;;;;;;5020447;28;20103;-67
2022/05/17 02:44:10;;;;;;;3.25;0.30;;;20.70;97.60;;;;;;5028353;28;20052;-67
2022/05/17 02:46:37;;;;;;;2.15;0.47;;;20.40;98.30;;;;;;5021029;28;20100;-67
2022/05/17 02:49:07;;;;;;;1.33;0.20;;;20.70;98.10;;;;;;5017612;28;20107;-66
2022/05/17 02:51:35;;;;;;;3.72;0.30;;;20.50;97.60;;;;;;5025099;28;20041;-67
2022/05/17 02:54:05;;;;;;;4.90;1.55;;;20.70;97.70;;;;;;5022178;28;20059;-67
2022/05/17 02:56:33;;;;;;;3.58;0.70;;;20.70;97.60;;;;;;5023438;28;20033;-67
2022/05/17 02:59:01;;;;;;;2.67;0.25;;;20.70;98.10;;;;;;5014353;28;20478;-67
2022/05/17 03:01:28;;;;;;;6.68;0.52;;;21.10;98.30;;;;;;5020821;28;20362;-67
2022/05/17 03:03:56;;;;;;;2.03;0.68;;;21.00;98.40;;;;;;5018988;28;20040;-67
2022/05/17 03:06:23;;;;;;;4.60;0.80;;;20.60;99.30;;;;;;5023543;28;20402;-67
2022/05/17 03:08:51;;;;;;;2.65;0.40;;;20.60;99.60;;;;;;5015638;28;20107;-67
2022/05/17 03:11:18;;;;;;;3.50;0.30;;;20.30;98.40;;;;;;5020229;28;20042;-67
2022/05/17 03:13:45;;;;;;;3.70;0.40;;;20.40;97.60;;;;;;5030053;28;20036;-67
2022/05/17 03:16:12;;;;;;;3.05;0.60;;;20.70;99.40;;;;;;5032716;28;20030;-67
2022/05/17 03:18:40;;;;;;;3.80;0.80;;;21.70;98.60;;;;;;5017226;28;20034;-67
2022/05/17 03:21:08;;;;;;;2.47;0.40;;;20.80;98.70;;;;;;5022048;28;20037;-67
2022/05/17 03:23:35;;;;;;;4.78;0.75;;;20.60;97.80;;;;;;5023766;28;20497;-67
2022/05/17 03:26:03;;;;;;;3.10;0.35;;;20.50;98.50;;;;;;5024953;28;20068;-67
2022/05/17 03:28:30;;;;;;;2.92;0.40;;;20.80;98.60;;;;;;5016207;28;20040;-67
2022/05/17 03:30:58;;;;;;;2.83;0.50;;;20.80;97.70;;;;;;5013543;28;20026;-68
2022/05/17 03:33:25;;;;;;;1.90;0.30;;;20.60;98.00;;;;;;5027925;28;20025;-68
2022/05/17 03:35:52;;;;;;;3.63;0.52;;;21.00;98.00;;;;;;5031281;28;20021;-67
2022/05/17 03:38:19;;;;;;;4.95;0.68;;;20.70;98.00;;;;;;5027095;28;20047;-68
2022/05/17 03:40:47;;;;;;;1.85;0.30;;;20.50;98.10;;;;;;5027372;28;20108;-68
2022/05/17 03:43:16;;;;;;;4.72;0.60;;;20.50;99.30;;;;;;5024017;28;20029;-68
2022/05/17 03:45:43;;;;;;;2.55;0.50;;;21.30;99.90;;;;;;5031294;28;20034;-68
2022/05/17 03:48:10;;;;;;;7.32;0.45;;;21.20;98.10;;;;;;5013438;28;20044;-67
2022/05/17 03:50:38;;;;;;;3.40;0.30;;;20.70;98.20;;;;;;5012420;28;20026;-68
2022/05/17 03:53:05;;;;;;;2.45;0.40;;;20.90;98.20;;;;;;5016879;28;20088;-67
2022/05/17 03:55:33;;;;;;;3.05;0.57;;;20.60;98.20;;;;;;5028729;28;20095;-68
2022/05/17 03:58:00;;;;;;;2.58;0.50;;;20.60;98.70;;;;;;5026936;28;20034;-68
2022/05/17 04:00:31;;;;;;;2.75;0.35;;;20.90;99.00;;;;;;5031492;28;20072;-68
2022/05/17 04:02:58;;;;;;;3.75;0.20;;;20.50;98.70;;;;;;5023232;28;20030;-68
2022/05/17 04:05:26;;;;;;;1.33;0.32;;;20.50;99.90;;;;;;5026227;28;20045;-68
2022/05/17 04:07:53;;;;;;;4.20;0.50;;;20.50;98.20;;;;;;5015804;28;20022;-68
2022/05/17 04:10:21;;;;;;;3.78;0.50;;;20.30;99.30;;;;;;5020483;28;20393;-67
2022/05/17 04:12:48;;;;;;;4.88;0.70;;;20.30;98.60;;;;;;5020149;28;20037;-68
2022/05/17 04:15:21;;;;;;;4.68;0.35;;;20.00;98.50;;;;;;5012677;28;20029;-68
2022/05/17 04:17:50;;;;;;;2.33;0.60;;;19.90;99.10;;;;;;5025462;28;20025;-67
2022/05/17 04:20:18;;;;;;;3.25;0.52;;;20.00;99.10;;;;;;5028055;28;20021;-67
2022/05/17 04:22:48;;;;;;;4.28;0.30;;;19.90;98.80;;;;;;5015453;28;20612;-68
2022/05/17 04:25:21;;;;;;;1.60;0.32;;;20.00;99.10;;;;;;5015872;28;20028;-67
2022/05/17 04:27:49;;;;;;;5.68;0.73;;;20.10;99.90;;;;;;5021015;28;20568;-67
2022/05/17 04:30:17;;;;;;;4.72;0.60;;;20.30;99.50;;;;;;5022918;28;20068;-67
2022/05/17 04:32:44;;;;;;;2.08;0.52;;;20.30;99.30;;;;;;5021388;28;20718;-67
2022/05/17 04:35:13;;;;;;;2.92;0.40;;;20.40;98.60;;;;;;5014286;28;20029;-67
2022/05/17 04:37:40;;;;;;;1.73;0.43;;;20.10;98.50;;;;;;5017150;28;20434;-67
2022/05/17 04:40:10;;;;;;;5.03;0.60;;;20.10;99.00;;;;;;5021282;28;20029;-67
2022/05/17 04:42:39;;;;;;;4.30;0.52;;;20.00;98.70;;;;;;5025474;28;20043;-66
2022/05/17 04:45:08;;;;;;;4.25;0.40;;;20.10;98.70;;;;;;5016684;28;20076;-67
2022/05/17 04:47:38;;;;;;;4.50;0.38;;;20.00;98.70;;;;;;5025162;28;20033;-67
2022/05/17 04:50:06;;;;;;;3.97;0.50;;;20.00;98.40;;;;;;5024889;28;20037;-67
2022/05/17 04:52:34;;;;;;;1.92;0.40;;;20.10;99.10;;;;;;5023233;28;20096;-67
2022/05/17 04:55:02;;;;;;;6.30;0.60;;;20.20;98.80;;;;;;5022889;28;20394;-67
2022/05/17 04:57:29;;;;;;;3.80;0.60;;;20.20;98.90;;;;;;5033587;28;20026;-67
2022/05/17 04:59:57;;;;;;;2.95;0.70;;;20.20;98.70;;;;;;5033358;28;20083;-67
2022/05/17 05:02:24;;;;;;;5.90;0.40;;;20.30;99.40;;;;;;5020770;28;20029;-67
2022/05/17 05:04:51;;;;;;;4.63;0.32;;;20.20;98.90;;;;;;5030373;28;20120;-67
2022/05/17 05:07:19;;;;;;;4.20;0.50;;;20.20;99.80;;;;;;5020183;28;20029;-67
2022/05/17 05:09:47;;;;;;;2.47;0.80;;;20.20;99.70;;;;;;5034540;28;20095;-67
2022/05/17 05:12:15;;;;;;;3.15;0.80;;;20.10;98.40;;;;;;5023901;28;20028;-67
2022/05/17 05:14:42;;;;;;;4.00;0.50;;;20.10;98.60;;;;;;5034334;28;20543;-67
2022/05/17 05:17:10;;;;;;;3.95;0.55;;;20.30;98.80;;;;;;5029573;28;20044;-68
2022/05/17 05:19:37;;;;;;;5.55;0.82;;;20.20;98.70;;;;;;5020369;28;20029;-68
2022/05/17 05:22:05;;;;;;;6.75;0.60;;;20.10;98.80;;;;;;5025373;28;20026;-68
2022/05/17 05:24:32;;;;;;;2.80;0.50;;;20.20;98.90;;;;;;5021839;28;20033;-67
2022/05/17 05:27:00;;;;;;;1.58;0.40;;;20.10;98.50;;;;;;5026232;28;20051;-68
2022/05/17 05:29:28;;;;;;;4.93;0.50;;;20.10;98.80;;;;;;5019002;28;20029;-67
2022/05/17 05:31:55;;;;;;;2.83;0.28;;;20.10;98.50;;;;;;5028432;28;20072;-68
2022/05/17 05:34:22;;;;;;;1.25;0.35;;;20.00;98.80;;;;;;5019600;28;20026;-68
2022/05/17 05:36:50;;;;;;;3.28;0.45;;;20.00;99.20;;;;;;5035114;28;20026;-68
2022/05/17 05:39:17;;;;;;;2.97;0.32;;;20.10;98.60;;;;;;5015199;28;20021;-68
2022/05/17 05:41:44;;;;;;;2.85;0.63;;;20.00;98.90;;;;;;5016483;28;20021;-68
2022/05/17 05:44:11;;;;;;;3.45;0.68;;;20.10;99.00;;;;;;5016462;28;20029;-67
2022/05/17 05:46:39;;;;;;;3.42;0.38;;;20.10;99.90;;;;;;5014601;28;20601;-67
2022/05/17 05:49:06;;;;;;;1.65;0.38;;;19.90;99.90;;;;;;5034053;28;20032;-68
2022/05/17 05:51:34;;;;;;;1.92;0.38;;;19.80;99.90;;;;;;5032788;28;20486;-68
2022/05/17 05:54:01;;;;;;;3.67;0.70;;;19.80;99.90;;;;;;5018975;28;20045;-67
2022/05/17 05:56:28;;;;;;;3.13;0.63;;;19.70;99.90;;;;;;5030462;28;20103;-67
2022/05/17 05:58:55;;;;;;;3.95;0.50;;;19.70;99.90;;;;;;5030623;28;20402;-67
2022/05/17 06:01:23;;;;;;;6.32;0.60;;;19.70;99.70;;;;;;5017842;28;20034;-67
2022/05/17 06:03:50;;;;;;;4.85;0.73;;;19.80;99.90;;;;;;5023436;28;20025;-67
2022/05/17 06:06:17;;;;;;;3.58;0.65;;;19.70;99.90;;;;;;5020400;28;20128;-67
2022/05/17 06:08:45;;;;;;;1.80;0.38;;;19.50;99.90;;;;;;5025193;28;20120;-67
2022/05/17 06:11:12;;;;;;;2.55;0.52;;;19.40;99.90;;;;;;5021167;28;20025;-67
2022/05/17 06:13:39;;;;;;;4.00;0.40;;;19.40;99.90;;;;;;5017959;28;20021;-67
2022/05/17 06:16:07;;;;;;;2.22;0.50;;;19.50;99.90;;;;;;5030177;28;20035;-67
2022/05/17 06:18:35;;;;;;;1.67;0.38;;;19.40;99.90;;;;;;5018529;28;20036;-67
2022/05/17 06:21:03;;;;;;;2.65;0.52;;;19.40;99.90;;;;;;5025596;28;20022;-67
2022/05/17 06:23:31;;;;;;;1.85;0.40;;;19.20;99.90;;;;;;5022829;28;20379;-68
2022/05/17 06:25:59;;;;;;;1.27;0.20;;;19.10;99.90;;;;;;5027113;28;20048;-68
2022/05/17 06:28:26;;;;;;;2.90;0.40;;;19.00;99.90;;;;;;5026088;28;20026;-68
2022/05/17 06:30:53;;;;;;;5.65;0.60;;;18.80;99.90;;;;;;5023394;28;20026;-68
2022/05/17 06:33:21;;;;;;;4.13;0.65;;;18.70;99.90;;;;;;5025689;28;20096;-68
2022/05/17 06:35:50;;;;;;;2.28;0.40;;;18.60;99.90;;;;;;5028472;28;20033;-69
2022/05/17 06:38:17;;;;;;;3.13;0.40;;;18.50;99.90;;;;;;5020871;28;20030;-68
2022/05/17 06:40:45;;;;;;;5.20;0.50;;;18.40;99.90;;;;;;5039988;28;20029;-69
2022/05/17 06:43:12;;;;;;;2.53;0.57;;;18.30;99.90;;;;;;5027534;28;20032;-69
2022/05/17 06:45:40;;;;;;;2.65;0.43;;;18.20;99.90;;;;;;5053807;28;20551;-69
2022/05/17 06:48:07;;;;;;;3.20;0.82;;;18.20;99.90;;;;;;5030448;28;20056;-69
2022/05/17 06:50:35;;;;;;;5.65;0.52;;;18.10;99.90;;;;;;5027656;28;20374;-68
2022/05/17 06:53:04;;;;;;;3.85;0.65;;;18.00;99.90;;;;;;5017804;28;20060;-69
2022/05/17 06:55:31;;;;;;;4.15;0.50;;;17.90;99.90;;;;;;5019608;28;20113;-68
2022/05/17 06:57:59;;;;;;;2.72;0.50;;;17.90;99.90;;;;;;5029109;28;20044;-69
2022/05/17 07:00:26;;;;;;;4.03;0.47;;;17.70;99.90;;;;;;5019700;28;20026;-68
2022/05/17 07:02:53;;;;;;;1.75;0.50;;;17.70;99.90;;;;;;5019057;28;20061;-69
2022/05/17 07:05:21;;;;;;;2.42;0.60;;;17.70;99.90;;;;;;5024401;28;20398;-68
2022/05/17 07:07:48;;;;;;;2.15;0.40;;;17.60;99.90;;;;;;5024039;28;20026;-69
2022/05/17 07:13:10;;;;;;;1.65;0.60;;;17.50;99.90;;;;;;5017762;28;20025;-68
2022/05/17 07:15:46;;;;;;;1.67;0.40;;;17.50;99.90;;;;;;5019719;28;20053;-68
2022/05/17 07:18:17;;;;;;;3.35;0.50;;;17.40;99.90;;;;;;5028468;28;20056;-69
2022/05/17 07:20:45;;;;;;;3.42;0.30;;;17.40;99.90;;;;;;5019722;28;20437;-69
2022/05/17 07:23:13;;;;;;;4.25;0.80;;;17.40;99.90;;;;;;5015625;28;20037;-69
2022/05/17 07:25:42;;;;;;;4.15;0.82;;;17.30;99.90;;;;;;5013005;28;20435;-68
2022/05/17 07:28:12;;;;;;;1.30;0.30;;;17.20;99.90;;;;;;5024479;28;20017;-68
2022/05/17 07:30:40;;;;;;;2.55;0.75;;;17.30;99.90;;;;;;5020742;28;20080;-66
2022/05/17 07:33:07;;;;;;;2.72;0.45;;;17.30;99.90;;;;;;5015272;28;20037;-66
2022/05/17 07:35:34;;;;;;;3.17;0.60;;;17.40;99.90;;;;;;5021584;28;20071;-66
2022/05/17 07:38:02;;;;;;;4.40;0.73;;;17.50;99.90;;;;;;5026716;28;20029;-66
2022/05/17 07:40:30;;;;;;;4.57;0.45;;;17.50;99.90;;;;;;5023169;28;20018;-67
2022/05/17 07:42:58;;;;;;;1.80;0.70;;;17.40;99.90;;;;;;5018628;28;20013;-66
2022/05/17 07:45:25;;;;;;;4.07;0.68;;;17.30;99.90;;;;;;5013791;28;20071;-67
2022/05/17 07:47:52;;;;;;;2.22;0.68;;;17.20;99.90;;;;;;5022410;28;20033;-66
2022/05/17 07:50:20;;;;;;;3.88;0.73;;;17.00;99.90;;;;;;5029818;28;20057;-67
2022/05/17 07:52:47;;;;;;;1.58;0.57;;;16.90;99.90;;;;;;5017522;28;20041;-66
2022/05/17 07:55:15;;;;;;;3.65;0.55;;;16.90;99.90;;;;;;5023692;28;20022;-67
2022/05/17 07:57:42;;;;;;;2.38;0.50;;;16.80;99.90;;;;;;5024262;28;20021;-67
2022/05/17 08:00:10;;;;;;;2.92;0.50;;;16.70;99.90;;;;;;5019266;28;20489;-67
2022/05/17 08:02:38;;;;;;;2.22;0.57;;;16.70;99.90;;;;;;5018322;28;20021;-67
2022/05/17 08:05:06;;;;;;;3.67;0.82;;;16.60;99.90;;;;;;5027211;28;20037;-67
2022/05/17 08:07:33;;;;;;;2.90;0.80;;;16.60;99.90;;;;;;5025031;28;20378;-67
2022/05/17 08:10:00;;;;;;;5.57;1.23;;;16.60;99.90;;;;;;5023417;28;20029;-67
2022/05/17 08:12:28;;;;;;;5.43;1.48;;;16.50;99.90;;;;;;5019072;28;20045;-67
2022/05/17 08:14:55;;;;;;;2.60;1.33;;;16.50;99.90;;;;;;5015491;28;20056;-67
2022/05/17 08:17:23;;;;;;;6.82;3.03;;;16.40;99.90;;;;;;5017092;28;20046;-67
2022/05/17 08:19:51;;;;;;;6.30;3.95;;;16.40;99.90;;;;;;5019959;28;20021;-67
2022/05/17 08:22:18;;;;;;;9.93;4.93;;;16.30;99.90;;;;;;5019536;28;20029;-67
2022/05/17 08:27:48;;;;;;;5.22;2.13;;;16.20;99.90;;;;;;5027886;28;20406;-67
2022/05/17 08:30:19;;;;;;;9.00;2.42;;;16.20;99.90;;;;;;5027959;28;20040;-67
2022/05/17 08:33:35;;;;;;;3.55;1.70;;;16.10;99.90;;;;;;5016937;28;20037;-67
2022/05/17 08:35:42;;;;;;;4.38;1.58;;;16.10;99.90;;;;;;5035630;28;20061;-66
2022/05/17 08:38:12;;;;;;;4.97;1.20;;;16.00;99.90;;;;;;5018274;28;20101;-67
2022/05/17 08:40:59;;;;;;;2.92;1.25;;;16.00;99.90;;;;;;5016982;28;20064;-67
2022/05/17 08:43:49;;;;;;;6.45;1.23;;;15.90;99.90;;;;;;5018193;28;20037;-67
2022/05/17 08:46:29;;;;;;;2.47;0.80;;;16.00;99.90;;;;;;5022903;28;20116;-67
2022/05/17 08:49:20;;;;;;;8.02;1.38;;;15.90;99.90;;;;;;5019104;28;20077;-67
2022/05/17 08:52:17;;;;;;;5.45;1.10;;;15.90;99.90;;;;;;5018374;28;20112;-67
2022/05/17 08:54:59;;;;;;;3.65;0.98;;;15.80;99.90;;;;;;5018394;28;20079;-67
2022/05/17 08:57:37;;;;;;;4.93;1.35;;;15.70;99.90;;;;;;5017900;28;20128;-67
2022/05/17 09:00:17;;;;;;;4.78;1.60;;;15.80;99.90;;;;;;5027035;28;20029;-67
2022/05/17 09:02:57;;;;;;;4.50;1.67;;;15.80;99.90;;;;;;5018225;28;20037;-67
2022/05/17 09:05:35;;;;;;;3.67;1.45;;;15.70;99.90;;;;;;5014805;28;20116;-65
2022/05/17 09:08:20;;;;;;;5.88;1.55;;;15.70;99.90;;;;;;5012887;28;20100;-65
2022/05/17 09:11:11;;;;;;;3.80;1.30;;;15.70;99.90;;;;;;5018740;28;20116;-65
2022/05/17 09:14:07;;;;;;;6.97;1.60;;;15.70;99.90;;;;;;5020988;28;20038;-66
2022/05/17 09:16:41;;;;;;;4.22;1.50;;;15.60;99.90;;;;;;5013336;28;20038;-66
2022/05/17 09:19:09;;;;;;;7.85;1.98;;;15.50;99.90;;;;;;5028667;28;20083;-66
2022/05/17 09:21:40;;;;;;;3.75;1.65;;;15.60;99.90;;;;;;5012922;28;20518;-67
2022/05/17 09:24:14;;;;;;;4.07;1.77;;;15.50;99.90;;;;;;5018094;28;20037;-67
2022/05/17 09:26:48;;;;;;;4.60;1.33;;;15.50;99.90;;;;;;5021896;28;20033;-66
2022/05/17 09:29:30;;;;;;;3.67;1.40;;;15.40;99.90;;;;;;5021482;28;20089;-67
2022/05/17 09:32:05;;;;;;;3.05;1.65;;;15.40;99.90;;;;;;5018899;28;20030;-67
2022/05/17 09:34:38;;;;;;;6.68;2.15;;;15.40;99.90;;;;;;5031863;28;20052;-67
2022/05/17 09:37:14;;;;;;;5.05;1.70;;;15.30;99.90;;;;;;5025361;28;20033;-67
2022/05/17 09:39:48;;;;;;;5.00;1.48;;;15.30;99.90;;;;;;5026942;28;20116;-66
2022/05/17 09:42:24;;;;;;;4.63;1.73;;;15.30;99.90;;;;;;5019436;28;20034;-66
2022/05/17 09:44:56;;;;;;;4.35;1.58;;;15.20;99.90;;;;;;5027770;28;20095;-67
2022/05/17 09:47:35;;;;;;;3.60;1.30;;;15.20;99.90;;;;;;5023481;28;20087;-66
2022/05/17 09:53:07;;;;;;;4.75;2.67;;;15.20;99.90;;;;;;5016969;28;20049;-66
2022/05/17 09:55:35;;;;;;;7.13;2.93;;;15.20;99.90;;;;;;5026465;28;20057;-67
2022/05/17 09:58:11;;;;;;;4.25;2.08;;;15.20;99.90;;;;;;5023605;28;20309;-67
2022/05/17 10:00:46;;;;;;;4.40;1.58;;;15.20;99.90;;;;;;5034702;28;20017;-67
2022/05/17 10:03:16;;;;;;;4.55;1.65;;;15.20;99.90;;;;;;5015514;28;20030;-67
2022/05/17 10:06:05;;;;;;;3.90;1.42;;;15.10;99.90;;;;;;5024152;28;20116;-67
2022/05/17 10:08:34;;;;;;;6.40;2.15;;;15.10;99.90;;;;;;5014762;28;20498;-67
2022/05/17 10:11:21;;;;;;;6.78;1.83;;;15.10;99.90;;;;;;5023579;28;20030;-67
2022/05/17 10:14:40;;;;;;;8.35;1.90;;;15.00;99.90;;;;;;5021137;28;20030;-67
2022/05/17 10:17:22;;;;;;;4.32;1.70;;;15.00;99.90;;;;;;5032430;28;20044;-67
2022/05/17 10:19:58;;;;;;;10.73;1.92;;;14.90;99.90;;;;;;5045470;28;20025;-67
2022/05/17 10:22:28;;;;;;;6.53;1.70;;;14.90;99.90;;;;;;5021056;28;20037;-67
2022/05/17 10:25:03;;;;;;;7.90;2.08;;;14.90;99.90;;;;;;5023799;28;20557;-67
2022/05/17 10:27:43;;;;;;;3.80;1.73;;;14.90;99.90;;;;;;5029738;28;20025;-67
2022/05/17 10:30:47;;;;;;;3.08;1.05;;;14.90;99.90;;;;;;5021622;28;20474;-67
2022/05/17 10:33:35;;;;;;;4.65;1.38;;;14.90;99.90;;;;;;5023993;28;20041;-68
2022/05/17 10:36:10;;;;;;;3.17;1.25;;;15.00;99.90;;;;;;5027632;28;20076;-68
2022/05/17 10:38:52;;;;;;;6.72;1.33;;;15.20;99.90;;;;;;5026868;28;20113;-68
2022/05/17 10:41:24;;;;;;;6.35;1.60;;;15.30;99.90;;;;;;5023012;28;20026;-68
2022/05/17 10:43:53;;;;;;;5.00;1.75;;;15.30;99.90;;;;;;5018720;28;20018;-68
2022/05/17 10:46:27;;;;;;;2.53;1.00;;;15.30;99.90;;;;;;5015887;28;20034;-68
2022/05/17 10:49:00;;;;;;;5.07;1.55;;;15.30;99.90;;;;;;5014303;28;20022;-67
2022/05/17 10:52:02;;;;;;;5.18;1.70;;;15.30;99.90;;;;;;5016177;28;20028;-67
2022/05/17 10:54:35;;;;;;;11.90;3.38;;;15.30;99.90;;;;;;5027829;28;20033;-67
2022/05/17 10:57:31;;;;;;;5.85;2.00;;;15.30;99.90;;;;;;5017323;28;20104;-68
2022/05/17 11:00:09;;;;;;;5.78;1.20;;;15.30;99.90;;;;;;5020066;28;20033;-68
2022/05/17 11:03:07;;;;;;;6.22;1.10;;;15.20;99.90;;;;;;5022114;28;20025;-68
2022/05/17 11:05:59;;;;;;;3.97;1.58;;;15.10;99.90;;;;;;5017711;28;20132;-67
2022/05/17 11:08:33;;;;;;;4.30;1.27;;;15.00;99.90;;;;;;5023615;28;20033;-67
2022/05/17 11:11:18;;;;;;;6.87;2.03;;;14.90;99.90;;;;;;5023484;28;20025;-68
2022/05/17 11:14:27;;;;;;;5.63;1.42;;;14.80;99.90;;;;;;5023266;28;20032;-68
2022/05/17 11:17:00;;;;;;;3.88;1.05;;;14.80;99.90;;;;;;5031445;28;20080;-68
2022/05/17 11:19:34;;;;;;;3.55;0.85;;;14.80;99.90;;;;;;5025813;28;20022;-67
2022/05/17 11:22:33;;;;;;;2.10;0.90;;;14.90;99.90;;;;;;5026437;28;20571;-68
2022/05/17 11:25:33;;;;;;;4.03;0.85;;;14.90;99.90;;;;;;5030246;28;20057;-68
2022/05/17 11:28:29;;;;;;;2.85;0.73;;;14.80;99.90;;;;;;5021534;28;20045;-68
2022/05/17 11:31:20;;;;;;;3.47;1.00;;;14.90;99.90;;;;;;5018845;28;20017;-68
2022/05/17 11:33:47;;;;;;;3.70;1.08;;;14.70;99.90;;;;;;5030571;28;20013;-68
2022/05/17 11:36:35;;;;;;;3.55;1.30;;;14.60;99.90;;;;;;5021939;28;20029;-68
2022/05/17 11:39:03;;;;;;;3.88;1.27;;;14.60;99.90;;;;;;5025465;28;20100;-68
2022/05/17 11:41:44;;;;;;;4.55;1.00;;;14.50;99.90;;;;;;5024664;28;20456;-67
2022/05/17 11:44:18;;;;;;;5.32;1.27;;;14.40;99.90;;;;;;5020573;28;20505;-67
2022/05/17 11:46:54;;;;;;;2.88;0.90;;;14.40;99.90;;;;;;5018955;28;21521;-67
2022/05/17 11:49:41;;;;;;;7.82;1.50;;;14.40;99.90;;;;;;5022894;28;20339;-67
2022/05/17 11:52:10;;;;;;;5.88;1.73;;;14.50;99.90;;;;;;5013618;28;20457;-68
2022/05/17 11:54:42;;;;;;;6.28;1.48;;;14.40;99.90;;;;;;5023334;28;20080;-67
2022/05/17 11:57:21;;;;;;;5.85;1.90;;;14.30;99.90;;;;;;5022876;28;20088;-67
2022/05/17 12:00:07;;;;;;;3.58;1.45;;;14.30;99.90;;;;;;5022206;28;20567;-67
2022/05/17 12:02:47;;;;;;;11.88;1.55;;;14.50;99.90;;;;;;5025091;28;20036;-67
2022/05/17 12:05:37;;;;;;;5.22;1.58;;;14.40;99.90;;;;;;5019108;28;20025;-67
2022/05/17 12:08:44;;;;;;;3.75;1.20;;;14.30;99.90;;;;;;5017293;28;20087;-67
2022/05/17 12:11:12;;;;;;;6.28;1.27;;;14.30;99.90;;;;;;5025474;28;20037;-67
2022/05/17 12:14:08;;;;;;;4.30;1.00;;;14.20;99.90;;;;;;5026333;28;20363;-67
2022/05/17 12:16:38;;;;;;;4.45;1.10;;;14.20;99.90;;;;;;5022766;28;20028;-68
2022/05/17 12:19:38;;;;;;;2.08;0.93;;;14.10;99.90;;;;;;5027802;28;20033;-67
2022/05/17 12:22:23;;;;;;;4.78;2.00;;;14.10;99.90;;;;;;5008426;28;20038;-68
2022/05/17 12:25:04;;;;;;;3.15;0.95;;;14.00;99.90;;;;;;5017113;28;20042;-67
2022/05/17 12:27:39;;;;;;;3.97;1.33;;;13.90;99.90;;;;;;5016526;28;20023;-67
2022/05/17 12:33:30;;;;;;;5.93;1.20;;;13.80;99.90;;;;;;5019917;28;20048;-67
2022/05/17 12:36:22;;;;;;;2.97;0.80;;;13.80;99.90;;;;;;5021335;28;20037;-68
2022/05/17 12:44:46;;;;;;;2.88;0.93;;;13.90;99.90;;;;;;5020234;28;20064;-67
2022/05/17 12:47:41;;;;;;;8.10;1.20;;;13.90;99.90;;;;;;5014099;28;20022;-67
2022/05/17 12:50:19;;;;;;;2.70;1.00;;;13.80;99.90;;;;;;5020528;28;20076;-67
2022/05/17 12:52:51;;;;;;;4.55;1.20;;;13.80;99.90;;;;;;5021273;28;20081;-67
2022/05/17 12:55:27;;;;;;;3.55;1.40;;;13.80;99.90;;;;;;5011870;28;20018;-67
2022/05/17 12:57:55;;;;;;;4.72;1.15;;;13.90;99.90;;;;;;5017282;28;20478;-68
2022/05/17 13:00:31;;;;;;;4.68;1.10;;;13.80;99.90;;;;;;5015783;28;20033;-67
2022/05/17 13:03:01;;;;;;;4.65;1.10;;;13.70;99.90;;;;;;5025614;28;20029;-68
2022/05/17 13:05:36;;;;;;;5.13;1.00;;;13.60;99.90;;;;;;5021513;28;20018;-67
2022/05/17 13:08:36;;;;;;;3.78;1.00;;;13.60;99.90;;;;;;5020378;28;20056;-68
2022/05/17 13:11:23;;;;;;;4.38;0.82;;;13.60;99.90;;;;;;5020828;28;20112;-68
2022/05/17 13:13:57;;;;;;;2.90;1.05;;;13.70;99.90;;;;;;5033452;28;20034;-67
2022/05/17 13:16:26;;;;;;;;;;;13.70;99.90;;;;;;5030355;28;20034;-67
2022/05/17 13:19:00;;;;;;;3.38;1.17;;;13.70;99.90;;;;;;5024885;28;20447;-67
2022/05/17 13:21:40;;;;;;;3.72;0.90;;;13.70;99.90;;;;;;5022366;28;20021;-68
2022/05/17 13:24:26;;;;;;;4.70;1.23;;;13.60;99.90;;;;;;5032622;28;20385;-67
2022/05/17 13:26:59;;;;;;;11.80;1.65;;;13.70;99.90;;;;;;5031013;28;20030;-67
2022/05/17 13:29:29;;;;;;;4.47;2.28;;;13.80;99.90;;;;;;5032567;28;20030;-67
2022/05/17 13:32:00;;;;;;;6.60;1.45;;;13.70;99.90;;;;;;5030098;28;20029;-67
2022/05/17 13:34:32;;;;;;;4.85;1.98;;;13.60;99.90;;;;;;5028062;28;20022;-67
2022/05/17 13:37:27;;;;;;;6.43;2.50;;;13.70;99.90;;;;;;5026602;28;20050;-67
2022/05/17 13:39:55;;;;;;;5.15;1.65;;;13.70;99.90;;;;;;5015238;28;20061;-67